createdAt,value
2024-01-15T00:02:29.994Z,48.33
2024-01-15T00:06:14.085Z,46.42
2024-01-15T00:09:38.186Z,45.70
2024-01-15T00:13:02.249Z,44.25
2024-01-15T00:16:52.616Z,41.72
2024-01-15T00:20:36.665Z,44.17
2024-01-15T00:24:01.144Z,44.10
2024-01-15T00:27:47.843Z,42.90
2024-01-15T00:31:28.383Z,42.70
2024-01-15T00:35:12.724Z,41.30
2024-01-15T00:38:55.790Z,44.40
2024-01-15T00:42:39.464Z,40.15
2024-01-15T00:46:12.942Z,45.20
2024-01-15T00:49:37.460Z,46.45
2024-01-15T00:53:02.491Z,35.10
2024-01-15T00:56:28.992Z,45.47
2024-01-15T01:03:50.124Z,40.70
2024-01-15T01:07:35.559Z,36.88
2024-01-15T01:11:29.784Z,44.17
2024-01-15T01:15:16.619Z,43.85
2024-01-15T01:18:40.078Z,36.90
2024-01-15T01:22:24.658Z,37.25
2024-01-15T01:25:58.552Z,40.15
2024-01-15T01:29:30.647Z,45.50
2024-01-15T01:32:37.566Z,41.37
2024-01-15T01:36:11.265Z,41.37
2024-01-15T01:39:14.168Z,42.22
2024-01-15T01:42:50.976Z,42.90
2024-01-15T01:46:41.845Z,40.35
2024-01-15T01:50:25.232Z,39.25
2024-01-15T01:53:50.100Z,39.15
2024-01-15T01:57:38.318Z,39.10
2024-01-15T02:00:45.840Z,35.83
2024-01-15T02:04:50.691Z,41.70
2024-01-15T02:07:54.609Z,41.42
2024-01-15T02:11:04.023Z,41.28
2024-01-15T02:14:29.077Z,34.90
2024-01-15T02:17:33.841Z,36.20
2024-01-15T02:20:37.549Z,42.15
2024-01-15T02:24:04.628Z,43.38
2024-01-15T02:27:38.631Z,34.50
2024-01-15T02:30:43.656Z,33.70
2024-01-15T02:34:02.508Z,37.58
2024-01-15T02:40:50.689Z,39.78
2024-01-15T02:44:34.083Z,35.83
2024-01-15T02:47:40.195Z,30.17
2024-01-15T02:50:45.922Z,41.22
2024-01-15T02:53:51.912Z,37.63
2024-01-15T02:56:55.897Z,43.53
2024-01-15T03:00:01.471Z,39.05
2024-01-15T03:03:25.392Z,39.38
2024-01-15T03:06:30.805Z,37.33
2024-01-15T03:09:34.572Z,34.72
2024-01-15T03:12:38.478Z,34.65
2024-01-15T03:16:05.209Z,37.42
2024-01-15T03:19:08.494Z,41.20
2024-01-15T03:22:59.476Z,34.88
2024-01-15T03:26:11.731Z,36.28
2024-01-15T03:29:15.345Z,35.97
2024-01-15T03:32:38.852Z,42.50
2024-01-15T03:35:42.434Z,37.33
2024-01-15T03:38:49.696Z,37.13
2024-01-15T03:41:53.983Z,36.72
2024-01-15T03:45:00.563Z,42.80
2024-01-15T03:48:05.340Z,34.45
2024-01-15T03:51:12.142Z,46.25
2024-01-15T03:54:17.746Z,49.72
2024-01-15T03:57:22.444Z,53.17
2024-01-15T04:00:26.927Z,47.60
2024-01-15T04:03:30.529Z,50.85
2024-01-15T04:06:51.714Z,47.80
2024-01-15T04:10:15.219Z,52.88
2024-01-15T04:13:20.871Z,47.92
2024-01-15T04:17:24.199Z,43.05
2024-01-15T04:20:28.182Z,49.88
2024-01-15T04:23:40.425Z,56.03
2024-01-15T04:26:44.183Z,46.53
2024-01-15T04:30:08.565Z,45.70
2024-01-15T04:33:11.775Z,45.72
2024-01-15T04:36:18.836Z,47.42
2024-01-15T04:39:25.481Z,45.22
2024-01-15T04:42:29.960Z,43.00
2024-01-15T04:46:13.017Z,36.22
2024-01-15T04:49:16.906Z,46.45
2024-01-15T04:52:22.503Z,44.72
2024-01-15T04:58:31.992Z,36.70
2024-01-15T05:01:38.129Z,40.53
2024-01-15T05:04:44.852Z,40.60
2024-01-15T05:08:13.852Z,38.53
2024-01-15T05:11:25.188Z,38.60
2024-01-15T05:14:33.474Z,46.00
2024-01-15T05:17:36.528Z,39.55
2024-01-15T05:20:42.001Z,37.53
2024-01-15T05:23:48.348Z,43.33
2024-01-15T05:29:58.678Z,51.42
2024-01-15T05:36:08.879Z,36.92
2024-01-15T05:39:14.725Z,46.03
2024-01-15T05:42:24.276Z,49.03
2024-01-15T05:45:28.402Z,37.75
2024-01-15T05:48:32.615Z,48.10
2024-01-15T05:51:36.834Z,46.00
2024-01-15T05:54:44.182Z,49.10
2024-01-15T05:58:13.121Z,51.15
2024-01-15T06:01:20.277Z,48.53
2024-01-15T06:05:04.458Z,51.30
2024-01-15T06:08:33.709Z,50.58
2024-01-15T06:11:38.309Z,49.35
2024-01-15T06:14:43.834Z,53.83
2024-01-15T06:17:49.405Z,50.92
2024-01-15T06:20:54.590Z,41.55
2024-01-15T06:27:08.424Z,45.70
2024-01-15T06:30:17.227Z,50.80
2024-01-15T06:33:24.220Z,48.17
2024-01-15T06:36:28.202Z,52.85
2024-01-15T06:40:15.608Z,52.22
2024-01-15T06:43:27.572Z,58.50
2024-01-15T06:46:50.420Z,64.00
2024-01-15T06:49:56.501Z,50.33
2024-01-15T06:53:05.664Z,54.15
2024-01-15T06:56:54.308Z,46.50
2024-01-15T07:00:17.612Z,52.75
2024-01-15T07:03:27.110Z,54.50
2024-01-15T07:06:32.210Z,49.83
2024-01-15T07:09:35.655Z,55.33
2024-01-15T07:12:42.929Z,52.40
2024-01-15T07:15:55.613Z,62.03
2024-01-15T07:18:59.674Z,58.63
2024-01-15T07:22:20.996Z,57.10
2024-01-15T07:25:24.297Z,62.78
2024-01-15T07:28:38.649Z,59.88
2024-01-15T07:31:50.934Z,59.60
2024-01-15T07:34:56.332Z,63.38
2024-01-15T07:38:01.208Z,63.15
2024-01-15T07:41:05.038Z,60.88
2024-01-15T07:44:08.652Z,54.75
2024-01-15T07:47:12.252Z,59.55
2024-01-15T07:50:15.379Z,64.40
2024-01-15T07:53:21.388Z,64.17
2024-01-15T07:57:14.268Z,61.65
2024-01-15T08:00:18.075Z,75.30
2024-01-15T08:03:26.586Z,76.62
2024-01-15T08:06:31.071Z,73.72
2024-01-15T08:09:37.187Z,69.97
2024-01-15T08:12:44.197Z,74.30
2024-01-15T08:15:49.797Z,70.43
2024-01-15T08:18:55.422Z,74.07
2024-01-15T08:21:58.357Z,66.62
2024-01-15T08:25:01.607Z,58.63
2024-01-15T08:28:09.422Z,71.68
2024-01-15T08:31:12.436Z,63.85
2024-01-15T08:34:18.130Z,53.28
2024-01-15T08:37:22.863Z,64.37
2024-01-15T08:40:28.642Z,63.35
2024-01-15T08:43:35.192Z,55.00
2024-01-15T08:46:39.217Z,55.08
2024-01-15T08:49:49.960Z,56.72
2024-01-15T08:52:53.736Z,60.65
2024-01-15T08:55:57.113Z,57.25
2024-01-15T08:59:03.315Z,62.17
2024-01-15T09:02:11.148Z,53.58
2024-01-15T09:05:16.564Z,56.60
2024-01-15T09:08:45.408Z,52.53
2024-01-15T09:11:48.244Z,56.15
2024-01-15T09:14:53.458Z,42.42
2024-01-15T09:18:00.657Z,40.25
2024-01-15T09:21:07.709Z,21.35
2024-01-15T09:24:11.183Z,18.17
2024-01-15T09:27:14.622Z,16.65
2024-01-15T09:30:21.049Z,13.95
2024-01-15T09:33:24.657Z,16.05
2024-01-15T09:36:28.575Z,16.85
2024-01-15T09:39:38.018Z,16.55
2024-01-15T09:42:42.218Z,14.73
2024-01-15T09:45:45.621Z,16.05
2024-01-15T09:48:49.075Z,13.50
2024-01-15T09:51:59.566Z,16.65
2024-01-15T09:55:14.201Z,12.85
2024-01-15T09:58:22.061Z,12.50
2024-01-15T10:01:26.474Z,15.65
2024-01-15T10:04:31.999Z,11.60
2024-01-15T10:07:42.784Z,11.57
2024-01-15T10:14:06.589Z,14.10
2024-01-15T10:17:15.646Z,8.80
2024-01-15T10:20:18.188Z,8.13
2024-01-15T10:23:24.785Z,11.98
2024-01-15T10:26:28.521Z,10.85
2024-01-15T10:29:31.698Z,11.15
2024-01-15T10:32:37.658Z,9.20
2024-01-15T10:35:43.514Z,8.23
2024-01-15T10:38:47.820Z,10.73
2024-01-15T10:41:55.202Z,8.45
2024-01-15T10:44:58.996Z,9.55
2024-01-15T10:48:04.076Z,9.10
2024-01-15T10:51:12.389Z,7.70
2024-01-15T10:54:18.696Z,8.77
2024-01-15T10:57:27.570Z,7.62
2024-01-15T11:00:31.976Z,6.43
2024-01-15T11:03:56.353Z,5.78
2024-01-15T11:06:59.891Z,7.03
2024-01-15T11:10:05.606Z,10.38
2024-01-15T11:13:23.720Z,6.57
2024-01-15T11:17:06.449Z,8.40
2024-01-15T11:20:13.975Z,7.97
2024-01-15T11:23:52.354Z,7.57
2024-01-15T11:26:59.692Z,7.53
2024-01-15T11:30:05.797Z,6.70
2024-01-15T11:33:34.403Z,10.05
2024-01-15T11:36:49.756Z,8.90
2024-01-15T11:40:02.536Z,6.55
2024-01-15T11:43:10.651Z,7.45
2024-01-15T11:46:19.931Z,8.85
2024-01-15T11:49:45.414Z,13.80
2024-01-15T11:53:15.818Z,7.65
2024-01-15T11:56:26.691Z,9.02
2024-01-15T11:59:31.920Z,7.30
2024-01-15T12:02:35.595Z,6.97
2024-01-15T12:05:40.453Z,8.93
2024-01-15T12:08:45.559Z,8.13
2024-01-15T12:12:17.803Z,10.65
2024-01-15T12:15:30.077Z,5.43
2024-01-15T12:19:17.633Z,6.35
2024-01-15T12:22:20.835Z,6.10
2024-01-15T12:25:36.114Z,8.90
2024-01-15T12:28:39.595Z,7.70
2024-01-15T12:31:49.778Z,6.45
2024-01-15T12:34:52.952Z,9.00
2024-01-15T12:38:04.521Z,8.27
2024-01-15T12:41:11.326Z,6.53
2024-01-15T12:47:20.319Z,11.60
2024-01-15T12:53:29.578Z,4.18
2024-01-15T12:56:36.392Z,6.05
2024-01-15T12:59:40.137Z,7.62
2024-01-15T13:02:46.844Z,6.05
2024-01-15T13:06:09.594Z,6.20
2024-01-15T13:09:16.085Z,6.20
2024-01-15T13:12:18.922Z,4.93
2024-01-15T13:15:24.924Z,5.32
2024-01-15T13:18:38.083Z,6.57
2024-01-15T13:21:43.347Z,4.93
2024-01-15T13:24:48.551Z,5.40
2024-01-15T13:27:54.638Z,6.07
2024-01-15T13:30:58.090Z,9.13
2024-01-15T13:34:10.632Z,4.53
2024-01-15T13:37:13.527Z,7.00
2024-01-15T13:40:21.144Z,6.72
2024-01-15T13:43:24.140Z,6.37
2024-01-15T13:46:31.005Z,7.03
2024-01-15T13:49:38.268Z,6.07
2024-01-15T13:52:46.099Z,5.87
2024-01-15T13:55:51.143Z,4.80
2024-01-15T13:59:17.174Z,4.80
2024-01-15T14:02:22.936Z,8.18
2024-01-15T14:05:48.938Z,5.20
2024-01-15T14:08:52.001Z,5.47
2024-01-15T14:11:59.649Z,3.97
2024-01-15T14:15:30.875Z,5.03
2024-01-15T14:18:59.085Z,5.55
2024-01-15T14:22:05.886Z,5.55
2024-01-15T14:25:50.246Z,4.95
2024-01-15T14:29:19.893Z,5.55
2024-01-15T14:32:44.722Z,5.75
2024-01-15T14:35:55.270Z,6.68
2024-01-15T14:39:28.706Z,8.00
2024-01-15T14:43:20.209Z,4.00
2024-01-15T14:47:04.561Z,5.15
2024-01-15T14:50:34.471Z,4.78
2024-01-15T14:53:59.960Z,6.57
2024-01-15T14:57:24.291Z,6.12
2024-01-15T15:01:20.725Z,7.20
2024-01-15T15:04:49.513Z,5.03
2024-01-15T15:07:53.980Z,8.18
2024-01-15T15:11:17.880Z,7.00
2024-01-15T15:15:08.822Z,10.13
2024-01-15T15:18:49.691Z,5.45
2024-01-15T15:21:53.796Z,9.20
2024-01-15T15:25:58.024Z,6.07
2024-01-15T15:29:26.684Z,4.47
2024-01-15T15:32:29.967Z,6.33
2024-01-15T15:35:33.494Z,6.28
2024-01-15T15:38:40.334Z,6.65
2024-01-15T15:41:54.456Z,5.03
2024-01-15T15:45:03.513Z,6.85
2024-01-15T15:48:26.804Z,5.40
2024-01-15T15:51:31.021Z,6.43
2024-01-15T15:54:38.789Z,8.15
2024-01-15T15:58:33.977Z,4.30
2024-01-15T16:02:00.279Z,4.97
2024-01-15T16:05:11.615Z,8.60
2024-01-15T16:08:37.531Z,7.65
2024-01-15T16:11:42.243Z,5.70
2024-01-15T16:14:47.755Z,6.75
2024-01-15T16:23:18.085Z,7.28
2024-01-15T16:23:36.267Z,6.43
2024-01-15T16:25:29.275Z,6.47
2024-01-15T16:28:54.971Z,4.43
2024-01-15T16:31:58.409Z,7.05
2024-01-15T16:35:04.747Z,4.55
2024-01-15T16:38:29.597Z,5.35
2024-01-15T16:41:32.697Z,6.28
2024-01-15T16:44:56.449Z,5.47
2024-01-15T16:48:21.390Z,4.50
2024-01-15T16:51:26.018Z,4.57
2024-01-15T16:54:48.833Z,7.75
2024-01-15T16:57:52.390Z,6.07
2024-01-15T17:01:17.071Z,3.47
2024-01-15T17:04:25.483Z,6.68
2024-01-15T17:07:37.273Z,5.30
2024-01-15T17:11:09.405Z,5.32
2024-01-15T17:14:19.483Z,3.67
2024-01-15T17:17:44.309Z,6.25
2024-01-15T17:20:59.454Z,7.07
2024-01-15T17:24:05.960Z,5.97
2024-01-15T17:27:19.280Z,4.75
2024-01-15T17:30:25.771Z,8.48
2024-01-15T17:33:28.843Z,5.35
2024-01-15T17:36:34.798Z,6.05
2024-01-15T17:39:38.715Z,5.18
2024-01-15T17:42:44.272Z,5.55
2024-01-15T17:45:49.949Z,6.72
2024-01-15T17:49:08.349Z,6.22
2024-01-15T17:52:33.201Z,6.53
2024-01-15T17:55:41.718Z,6.82
2024-01-15T17:59:08.047Z,5.60
2024-01-15T18:02:14.074Z,4.65
2024-01-15T18:05:22.013Z,5.18
2024-01-15T18:08:28.096Z,9.18
2024-01-15T18:11:33.868Z,8.88
2024-01-15T18:14:38.001Z,7.87
2024-01-15T18:17:46.695Z,11.57
2024-01-15T18:21:09.786Z,7.30
2024-01-15T18:24:15.080Z,8.77
2024-01-15T18:27:41.840Z,11.83
2024-01-15T18:30:51.146Z,7.60
2024-01-15T18:34:17.364Z,6.40
2024-01-15T18:37:54.144Z,4.15
2024-01-15T18:41:03.516Z,6.32
2024-01-15T18:44:13.457Z,4.15
2024-01-15T18:47:18.449Z,7.12
2024-01-15T18:50:45.294Z,4.30
2024-01-15T18:54:12.292Z,4.18
2024-01-15T18:57:58.365Z,4.37
2024-01-15T19:01:41.904Z,5.43
2024-01-15T19:05:01.627Z,5.03
2024-01-15T19:08:28.126Z,5.35
2024-01-15T19:11:34.218Z,6.65
2024-01-15T19:15:00.767Z,5.82
2024-01-15T19:18:04.712Z,8.05
2024-01-15T19:21:07.939Z,4.75
2024-01-15T19:24:12.059Z,6.68
2024-01-15T19:27:14.907Z,7.82
2024-01-15T19:30:49.665Z,7.80
2024-01-15T19:33:59.057Z,7.00
2024-01-15T19:37:09.336Z,6.28
2024-01-15T19:40:40.447Z,7.97
2024-01-15T19:43:50.787Z,9.30
2024-01-15T19:46:53.774Z,5.97
2024-01-15T19:49:57.824Z,8.00
2024-01-15T19:53:04.120Z,5.12
2024-01-15T19:56:30.840Z,7.70
2024-01-15T20:00:17.281Z,4.40
2024-01-15T20:03:43.223Z,6.37
2024-01-15T20:07:28.110Z,5.15
2024-01-15T20:10:51.733Z,5.62
2024-01-15T20:13:55.194Z,5.47
2024-01-15T20:17:20.550Z,4.97
2024-01-15T20:20:45.588Z,5.45
2024-01-15T20:23:58.529Z,5.28
2024-01-15T20:27:32.976Z,3.78
2024-01-15T20:30:40.869Z,5.07
2024-01-15T20:33:48.145Z,4.95
2024-01-15T20:36:59.311Z,6.45
2024-01-15T20:40:06.268Z,4.90
2024-01-15T20:43:30.571Z,6.35
2024-01-15T20:46:40.129Z,6.35
2024-01-15T20:49:43.868Z,4.82
2024-01-15T20:53:10.574Z,6.30
2024-01-15T20:56:34.868Z,6.68
2024-01-15T20:59:38.702Z,9.80
2024-01-15T21:02:51.827Z,7.22
2024-01-15T21:06:17.174Z,7.05
2024-01-15T21:09:33.315Z,9.25
2024-01-15T21:12:42.333Z,5.07
2024-01-15T21:15:50.228Z,7.10
2024-01-15T21:18:57.910Z,6.87
2024-01-15T21:22:09.000Z,6.45
2024-01-15T21:25:31.949Z,5.45
2024-01-15T21:28:39.447Z,5.87
2024-01-15T21:32:14.901Z,8.98
2024-01-15T21:35:26.896Z,6.18
2024-01-15T21:38:34.774Z,8.52
2024-01-15T21:41:55.057Z,5.65
2024-01-15T21:44:57.846Z,5.87
2024-01-15T21:48:09.050Z,4.47
2024-01-15T21:51:12.188Z,5.18
2024-01-15T21:54:37.188Z,5.95
2024-01-15T21:58:23.343Z,4.43
2024-01-15T22:02:10.318Z,5.15
2024-01-15T22:05:18.125Z,13.02
2024-01-15T22:08:40.878Z,4.55
2024-01-15T22:12:09.094Z,11.18
2024-01-15T22:15:48.672Z,4.72
2024-01-15T22:19:35.415Z,4.47
2024-01-15T22:22:58.492Z,6.75
2024-01-15T22:26:05.091Z,3.67
2024-01-15T22:29:14.351Z,6.60
2024-01-15T22:32:21.662Z,6.15
2024-01-15T22:36:04.987Z,5.62
2024-01-15T22:42:14.612Z,6.18
2024-01-15T22:45:40.300Z,6.62
2024-01-15T22:49:03.942Z,4.05
2024-01-15T22:52:15.959Z,6.55
2024-01-15T22:55:55.727Z,5.25
2024-01-15T22:59:00.756Z,5.95
2024-01-15T23:02:05.046Z,4.85
2024-01-15T23:05:09.435Z,6.12
2024-01-15T23:08:35.428Z,6.70
2024-01-15T23:11:46.480Z,3.87
2024-01-15T23:14:50.117Z,5.40
2024-01-15T23:18:07.252Z,6.28
2024-01-15T23:21:14.742Z,8.00
2024-01-15T23:24:19.218Z,6.15
2024-01-15T23:27:47.399Z,7.03
2024-01-15T23:30:51.867Z,5.43
2024-01-15T23:34:15.059Z,5.47
2024-01-15T23:37:39.481Z,4.43
2024-01-15T23:41:02.801Z,3.92
2024-01-15T23:44:48.039Z,3.92
2024-01-15T23:48:37.509Z,2.58
2024-01-15T23:52:21.906Z,3.72
2024-01-15T23:55:24.834Z,3.42
2024-01-15T23:58:49.350Z,5.07
